sensor_id;sensor_type;location;lat;lon;timestamp;temperature;humidity
1011;DHT22;494;48.744;10.106;2023-01-26T00:00:16;2.90;44.70
1011;DHT22;494;48.744;10.106;2023-01-26T00:02:52;3.00;44.80
1011;DHT22;494;48.744;10.106;2023-01-26T00:05:35;3.20;44.70
1011;DHT22;494;48.744;10.106;2023-01-26T00:08:07;3.10;44.70
1011;DHT22;494;48.744;10.106;2023-01-26T00:10:38;3.20;44.20
1011;DHT22;494;48.744;10.106;2023-01-26T00:13:10;3.20;43.70
1011;DHT22;494;48.744;10.106;2023-01-26T00:15:43;2.90;44.10
1011;DHT22;494;48.744;10.106;2023-01-26T00:18:16;2.90;44.70
1011;DHT22;494;48.744;10.106;2023-01-26T00:20:56;3.10;44.90
1011;DHT22;494;48.744;10.106;2023-01-26T00:23:26;3.10;44.70
1011;DHT22;494;48.744;10.106;2023-01-26T00:26:07;3.20;44.50
1011;DHT22;494;48.744;10.106;2023-01-26T00:28:44;3.40;44.00
1011;DHT22;494;48.744;10.106;2023-01-26T00:31:24;3.30;43.60
1011;DHT22;494;48.744;10.106;2023-01-26T00:33:56;3.40;43.10
1011;DHT22;494;48.744;10.106;2023-01-26T00:36:31;3.40;42.50
1011;DHT22;494;48.744;10.106;2023-01-26T00:39:14;3.20;43.10
1011;DHT22;494;48.744;10.106;2023-01-26T00:41:46;3.30;43.30
1011;DHT22;494;48.744;10.106;2023-01-26T00:44:36;3.50;43.30
1011;DHT22;494;48.744;10.106;2023-01-26T00:47:07;3.60;43.00
1011;DHT22;494;48.744;10.106;2023-01-26T00:49:38;3.50;42.50
1011;DHT22;494;48.744;10.106;2023-01-26T00:52:07;3.40;42.20
1011;DHT22;494;48.744;10.106;2023-01-26T00:54:36;3.50;42.40
1011;DHT22;494;48.744;10.106;2023-01-26T00:57:05;3.50;42.40
1011;DHT22;494;48.744;10.106;2023-01-26T00:59:36;3.50;42.30
1011;DHT22;494;48.744;10.106;2023-01-26T01:02:06;3.60;41.90
1011;DHT22;494;48.744;10.106;2023-01-26T01:04:37;3.60;41.80
1011;DHT22;494;48.744;10.106;2023-01-26T01:07:06;3.80;41.80
1011;DHT22;494;48.744;10.106;2023-01-26T01:09:35;3.70;41.90
1011;DHT22;494;48.744;10.106;2023-01-26T01:12:04;3.80;41.70
1011;DHT22;494;48.744;10.106;2023-01-26T01:14:34;3.70;41.20
1011;DHT22;494;48.744;10.106;2023-01-26T01:17:03;3.60;41.40
1011;DHT22;494;48.744;10.106;2023-01-26T01:19:31;3.70;41.80
1011;DHT22;494;48.744;10.106;2023-01-26T01:22:02;3.80;41.80
1011;DHT22;494;48.744;10.106;2023-01-26T01:24:32;3.60;41.70
1011;DHT22;494;48.744;10.106;2023-01-26T01:27:02;3.70;41.60
1011;DHT22;494;48.744;10.106;2023-01-26T01:29:31;3.60;41.50
1011;DHT22;494;48.744;10.106;2023-01-26T01:32:00;3.60;41.00
1011;DHT22;494;48.744;10.106;2023-01-26T01:34:29;3.60;40.90
1011;DHT22;494;48.744;10.106;2023-01-26T01:36:58;3.60;41.10
1011;DHT22;494;48.744;10.106;2023-01-26T01:39:28;3.60;41.20
1011;DHT22;494;48.744;10.106;2023-01-26T01:41:57;3.60;41.30
1011;DHT22;494;48.744;10.106;2023-01-26T01:44:26;3.70;41.50
1011;DHT22;494;48.744;10.106;2023-01-26T01:46:57;3.60;41.40
1011;DHT22;494;48.744;10.106;2023-01-26T01:49:31;3.70;41.30
1011;DHT22;494;48.744;10.106;2023-01-26T01:52:07;3.70;41.40
1011;DHT22;494;48.744;10.106;2023-01-26T01:54:42;3.80;41.80
1011;DHT22;494;48.744;10.106;2023-01-26T01:57:18;3.60;41.00
1011;DHT22;494;48.744;10.106;2023-01-26T01:59:58;3.60;41.10
1011;DHT22;494;48.744;10.106;2023-01-26T02:02:32;3.50;41.30
1011;DHT22;494;48.744;10.106;2023-01-26T02:05:06;3.40;41.40
1011;DHT22;494;48.744;10.106;2023-01-26T02:07:40;3.20;42.10
1011;DHT22;494;48.744;10.106;2023-01-26T02:10:11;3.30;42.30
1011;DHT22;494;48.744;10.106;2023-01-26T02:12:47;3.40;42.60
1011;DHT22;494;48.744;10.106;2023-01-26T02:15:19;3.20;42.50
1011;DHT22;494;48.744;10.106;2023-01-26T02:17:50;3.20;42.70
1011;DHT22;494;48.744;10.106;2023-01-26T02:20:23;3.30;42.80
1011;DHT22;494;48.744;10.106;2023-01-26T02:23:03;2.90;43.20
1011;DHT22;494;48.744;10.106;2023-01-26T02:25:44;3.10;43.40
1011;DHT22;494;48.744;10.106;2023-01-26T02:28:26;2.90;44.30
1011;DHT22;494;48.744;10.106;2023-01-26T02:30:55;2.70;44.70
1011;DHT22;494;48.744;10.106;2023-01-26T02:33:27;2.80;44.90
1011;DHT22;494;48.744;10.106;2023-01-26T02:35:59;2.90;45.70
1011;DHT22;494;48.744;10.106;2023-01-26T02:38:38;3.00;44.70
1011;DHT22;494;48.744;10.106;2023-01-26T02:41:13;2.90;44.30
1011;DHT22;494;48.744;10.106;2023-01-26T02:44:07;3.00;44.00
1011;DHT22;494;48.744;10.106;2023-01-26T02:46:36;3.20;43.00
1011;DHT22;494;48.744;10.106;2023-01-26T02:49:05;3.20;43.20
1011;DHT22;494;48.744;10.106;2023-01-26T02:51:51;3.20;43.90
1011;DHT22;494;48.744;10.106;2023-01-26T02:54:20;3.30;42.80
1011;DHT22;494;48.744;10.106;2023-01-26T02:57:07;3.40;42.50
1011;DHT22;494;48.744;10.106;2023-01-26T02:59:36;3.40;42.30
1011;DHT22;494;48.744;10.106;2023-01-26T03:02:05;3.60;41.40
1011;DHT22;494;48.744;10.106;2023-01-26T03:04:34;3.40;41.20
1011;DHT22;494;48.744;10.106;2023-01-26T03:07:03;3.30;41.10
1011;DHT22;494;48.744;10.106;2023-01-26T03:09:32;3.50;41.40
1011;DHT22;494;48.744;10.106;2023-01-26T03:12:01;3.20;41.10
1011;DHT22;494;48.744;10.106;2023-01-26T03:14:32;3.30;40.60
1011;DHT22;494;48.744;10.106;2023-01-26T03:17:00;3.20;41.60
1011;DHT22;494;48.744;10.106;2023-01-26T03:19:29;3.10;41.10
1011;DHT22;494;48.744;10.106;2023-01-26T03:22:15;3.10;41.10
1011;DHT22;494;48.744;10.106;2023-01-26T03:25:01;3.30;41.20
1011;DHT22;494;48.744;10.106;2023-01-26T03:27:48;3.20;41.10
1011;DHT22;494;48.744;10.106;2023-01-26T03:30:19;3.20;41.10
1011;DHT22;494;48.744;10.106;2023-01-26T03:32:47;3.30;40.80
1011;DHT22;494;48.744;10.106;2023-01-26T03:35:16;3.50;41.00
1011;DHT22;494;48.744;10.106;2023-01-26T03:37:48;3.60;40.90
1011;DHT22;494;48.744;10.106;2023-01-26T03:40:21;3.40;40.60
1011;DHT22;494;48.744;10.106;2023-01-26T03:43:08;3.50;40.30
1011;DHT22;494;48.744;10.106;2023-01-26T03:45:55;3.60;40.20
1011;DHT22;494;48.744;10.106;2023-01-26T03:48:43;3.40;39.90
1011;DHT22;494;48.744;10.106;2023-01-26T03:51:29;3.60;40.20
1011;DHT22;494;48.744;10.106;2023-01-26T03:54:15;3.60;40.00
1011;DHT22;494;48.744;10.106;2023-01-26T03:57:01;3.50;40.00
1011;DHT22;494;48.744;10.106;2023-01-26T03:59:30;3.60;39.70
1011;DHT22;494;48.744;10.106;2023-01-26T04:02:08;3.60;39.70
1011;DHT22;494;48.744;10.106;2023-01-26T04:04:55;3.70;39.70
1011;DHT22;494;48.744;10.106;2023-01-26T04:07:42;3.70;39.70
1011;DHT22;494;48.744;10.106;2023-01-26T04:10:31;3.50;39.60
1011;DHT22;494;48.744;10.106;2023-01-26T04:12:59;3.50;39.90
1011;DHT22;494;48.744;10.106;2023-01-26T04:15:46;3.50;39.80
1011;DHT22;494;48.744;10.106;2023-01-26T04:18:34;3.50;39.50
1011;DHT22;494;48.744;10.106;2023-01-26T04:21:20;3.50;39.70
1011;DHT22;494;48.744;10.106;2023-01-26T04:23:57;3.30;39.80
1011;DHT22;494;48.744;10.106;2023-01-26T04:26:27;3.40;40.00
1011;DHT22;494;48.744;10.106;2023-01-26T04:29:04;3.40;39.80
1011;DHT22;494;48.744;10.106;2023-01-26T04:31:34;3.50;40.00
1011;DHT22;494;48.744;10.106;2023-01-26T04:34:06;3.30;39.60
1011;DHT22;494;48.744;10.106;2023-01-26T04:36:41;3.20;39.40
1011;DHT22;494;48.744;10.106;2023-01-26T04:39:10;3.20;39.70
1011;DHT22;494;48.744;10.106;2023-01-26T04:41:39;3.00;40.10
1011;DHT22;494;48.744;10.106;2023-01-26T04:44:08;3.20;41.00
1011;DHT22;494;48.744;10.106;2023-01-26T04:46:37;3.20;40.40
1011;DHT22;494;48.744;10.106;2023-01-26T04:49:07;3.20;40.40
1011;DHT22;494;48.744;10.106;2023-01-26T04:51:36;3.20;40.10
1011;DHT22;494;48.744;10.106;2023-01-26T04:54:05;3.20;40.00
1011;DHT22;494;48.744;10.106;2023-01-26T04:56:34;3.00;40.00
1011;DHT22;494;48.744;10.106;2023-01-26T04:59:05;3.00;40.20
1011;DHT22;494;48.744;10.106;2023-01-26T05:01:35;2.80;40.60
1011;DHT22;494;48.744;10.106;2023-01-26T05:04:04;2.80;40.80
1011;DHT22;494;48.744;10.106;2023-01-26T05:06:35;2.90;41.00
1011;DHT22;494;48.744;10.106;2023-01-26T05:09:04;2.80;41.10
1011;DHT22;494;48.744;10.106;2023-01-26T05:11:36;2.80;41.30
1011;DHT22;494;48.744;10.106;2023-01-26T05:14:05;2.80;40.90
1011;DHT22;494;48.744;10.106;2023-01-26T05:16:34;2.80;40.90
1011;DHT22;494;48.744;10.106;2023-01-26T05:19:02;3.10;41.10
1011;DHT22;494;48.744;10.106;2023-01-26T05:21:33;3.10;40.70
1011;DHT22;494;48.744;10.106;2023-01-26T05:24:01;3.20;40.40
1011;DHT22;494;48.744;10.106;2023-01-26T05:26:30;3.20;40.00
1011;DHT22;494;48.744;10.106;2023-01-26T05:28:59;3.50;40.00
1011;DHT22;494;48.744;10.106;2023-01-26T05:31:27;3.40;39.80
1011;DHT22;494;48.744;10.106;2023-01-26T05:33:56;3.60;39.50
1011;DHT22;494;48.744;10.106;2023-01-26T05:36:25;3.50;39.20
1011;DHT22;494;48.744;10.106;2023-01-26T05:38:55;3.50;38.90
1011;DHT22;494;48.744;10.106;2023-01-26T05:41:25;3.50;38.60
1011;DHT22;494;48.744;10.106;2023-01-26T05:43:54;3.60;38.60
1011;DHT22;494;48.744;10.106;2023-01-26T05:46:22;3.60;38.50
1011;DHT22;494;48.744;10.106;2023-01-26T05:48:52;3.60;38.40
1011;DHT22;494;48.744;10.106;2023-01-26T05:51:20;3.60;38.40
1011;DHT22;494;48.744;10.106;2023-01-26T05:53:49;3.60;38.40
1011;DHT22;494;48.744;10.106;2023-01-26T05:56:19;3.80;38.40
1011;DHT22;494;48.744;10.106;2023-01-26T05:58:48;3.70;38.30
1011;DHT22;494;48.744;10.106;2023-01-26T06:01:16;3.70;38.10
1011;DHT22;494;48.744;10.106;2023-01-26T06:03:45;3.70;38.10
1011;DHT22;494;48.744;10.106;2023-01-26T06:06:14;3.80;37.80
1011;DHT22;494;48.744;10.106;2023-01-26T06:08:43;3.80;38.00
1011;DHT22;494;48.744;10.106;2023-01-26T06:11:11;3.60;38.30
1011;DHT22;494;48.744;10.106;2023-01-26T06:13:41;3.70;38.60
1011;DHT22;494;48.744;10.106;2023-01-26T06:16:10;3.40;38.50
1011;DHT22;494;48.744;10.106;2023-01-26T06:18:39;3.70;38.70
1011;DHT22;494;48.744;10.106;2023-01-26T06:21:08;3.60;38.70
1011;DHT22;494;48.744;10.106;2023-01-26T06:23:36;3.60;38.20
1011;DHT22;494;48.744;10.106;2023-01-26T06:26:05;3.60;38.20
1011;DHT22;494;48.744;10.106;2023-01-26T06:28:36;3.60;38.20
1011;DHT22;494;48.744;10.106;2023-01-26T06:31:07;3.80;38.30
1011;DHT22;494;48.744;10.106;2023-01-26T06:33:37;3.80;38.20
1011;DHT22;494;48.744;10.106;2023-01-26T06:36:08;3.70;38.00
1011;DHT22;494;48.744;10.106;2023-01-26T06:38:43;3.60;38.10
1011;DHT22;494;48.744;10.106;2023-01-26T06:41:13;3.60;38.50
1011;DHT22;494;48.744;10.106;2023-01-26T06:43:44;3.70;38.50
1011;DHT22;494;48.744;10.106;2023-01-26T06:46:16;3.80;38.40
1011;DHT22;494;48.744;10.106;2023-01-26T06:48:46;3.80;38.20
1011;DHT22;494;48.744;10.106;2023-01-26T06:51:41;3.70;37.60
1011;DHT22;494;48.744;10.106;2023-01-26T06:54:23;3.60;37.80
1011;DHT22;494;48.744;10.106;2023-01-26T06:56:52;3.60;37.90
1011;DHT22;494;48.744;10.106;2023-01-26T06:59:20;3.50;38.10
1011;DHT22;494;48.744;10.106;2023-01-26T07:01:51;3.60;38.20
1011;DHT22;494;48.744;10.106;2023-01-26T07:04:20;3.60;38.20
1011;DHT22;494;48.744;10.106;2023-01-26T07:06:53;3.70;38.20
1011;DHT22;494;48.744;10.106;2023-01-26T07:09:22;3.60;38.10
1011;DHT22;494;48.744;10.106;2023-01-26T07:11:51;3.30;38.50
1011;DHT22;494;48.744;10.106;2023-01-26T07:14:19;3.30;39.80
1011;DHT22;494;48.744;10.106;2023-01-26T07:16:48;3.10;39.70
1011;DHT22;494;48.744;10.106;2023-01-26T07:19:18;3.00;40.10
1011;DHT22;494;48.744;10.106;2023-01-26T07:21:47;3.00;40.40
1011;DHT22;494;48.744;10.106;2023-01-26T07:24:16;3.00;40.20
1011;DHT22;494;48.744;10.106;2023-01-26T07:26:47;3.10;40.30
1011;DHT22;494;48.744;10.106;2023-01-26T07:29:16;3.00;40.40
1011;DHT22;494;48.744;10.106;2023-01-26T07:31:45;3.20;40.70
1011;DHT22;494;48.744;10.106;2023-01-26T07:34:15;3.10;40.50
1011;DHT22;494;48.744;10.106;2023-01-26T07:36:45;3.20;40.30
1011;DHT22;494;48.744;10.106;2023-01-26T07:39:14;3.10;40.60
1011;DHT22;494;48.744;10.106;2023-01-26T07:41:42;3.20;40.50
1011;DHT22;494;48.744;10.106;2023-01-26T07:44:11;3.20;40.60
1011;DHT22;494;48.744;10.106;2023-01-26T07:46:40;2.90;40.60
1011;DHT22;494;48.744;10.106;2023-01-26T07:49:11;3.00;40.90
1011;DHT22;494;48.744;10.106;2023-01-26T07:51:40;3.20;41.10
1011;DHT22;494;48.744;10.106;2023-01-26T07:54:10;3.30;40.70
1011;DHT22;494;48.744;10.106;2023-01-26T07:56:39;3.20;40.60
1011;DHT22;494;48.744;10.106;2023-01-26T07:59:10;3.10;40.40
1011;DHT22;494;48.744;10.106;2023-01-26T08:01:39;3.30;40.20
1011;DHT22;494;48.744;10.106;2023-01-26T08:04:08;3.40;39.90
1011;DHT22;494;48.744;10.106;2023-01-26T08:06:37;3.50;39.50
1011;DHT22;494;48.744;10.106;2023-01-26T08:09:06;3.40;39.70
1011;DHT22;494;48.744;10.106;2023-01-26T08:11:36;3.40;39.90
1011;DHT22;494;48.744;10.106;2023-01-26T08:14:04;3.30;39.50
1011;DHT22;494;48.744;10.106;2023-01-26T08:16:33;3.10;40.00
1011;DHT22;494;48.744;10.106;2023-01-26T08:19:02;3.30;39.80
1011;DHT22;494;48.744;10.106;2023-01-26T08:21:30;3.20;39.60
1011;DHT22;494;48.744;10.106;2023-01-26T08:23:59;3.20;39.50
1011;DHT22;494;48.744;10.106;2023-01-26T08:26:29;3.20;39.40
1011;DHT22;494;48.744;10.106;2023-01-26T08:28:59;3.30;39.10
1011;DHT22;494;48.744;10.106;2023-01-26T08:31:28;3.20;38.70
1011;DHT22;494;48.744;10.106;2023-01-26T08:33:59;3.20;38.90
1011;DHT22;494;48.744;10.106;2023-01-26T08:36:28;3.40;39.00
1011;DHT22;494;48.744;10.106;2023-01-26T08:38:57;3.50;38.70
1011;DHT22;494;48.744;10.106;2023-01-26T08:41:28;3.60;38.10
1011;DHT22;494;48.744;10.106;2023-01-26T08:44:00;3.70;37.50
1011;DHT22;494;48.744;10.106;2023-01-26T08:46:29;3.70;36.50
1011;DHT22;494;48.744;10.106;2023-01-26T08:48:58;3.80;36.00
1011;DHT22;494;48.744;10.106;2023-01-26T08:51:26;4.10;35.70
1011;DHT22;494;48.744;10.106;2023-01-26T08:53:55;4.00;35.50
1011;DHT22;494;48.744;10.106;2023-01-26T08:56:23;4.30;35.10
1011;DHT22;494;48.744;10.106;2023-01-26T08:58:52;4.20;34.30
1011;DHT22;494;48.744;10.106;2023-01-26T09:01:22;4.40;33.70
1011;DHT22;494;48.744;10.106;2023-01-26T09:03:51;4.20;33.90
1011;DHT22;494;48.744;10.106;2023-01-26T09:06:21;4.20;33.40
1011;DHT22;494;48.744;10.106;2023-01-26T09:08:51;4.30;33.40
1011;DHT22;494;48.744;10.106;2023-01-26T09:11:19;4.30;32.60
1011;DHT22;494;48.744;10.106;2023-01-26T09:13:49;4.50;32.40
1011;DHT22;494;48.744;10.106;2023-01-26T09:16:23;4.30;32.20
1011;DHT22;494;48.744;10.106;2023-01-26T09:18:52;4.30;32.80
1011;DHT22;494;48.744;10.106;2023-01-26T09:21:21;4.20;32.90
1011;DHT22;494;48.744;10.106;2023-01-26T09:23:50;4.10;32.40
1011;DHT22;494;48.744;10.106;2023-01-26T09:26:19;4.30;32.50
1011;DHT22;494;48.744;10.106;2023-01-26T09:28:49;4.30;32.80
1011;DHT22;494;48.744;10.106;2023-01-26T09:31:18;4.20;32.60
1011;DHT22;494;48.744;10.106;2023-01-26T09:33:49;4.30;32.50
1011;DHT22;494;48.744;10.106;2023-01-26T09:36:18;4.30;32.90
1011;DHT22;494;48.744;10.106;2023-01-26T09:38:47;4.20;32.60
1011;DHT22;494;48.744;10.106;2023-01-26T09:41:28;4.20;32.90
1011;DHT22;494;48.744;10.106;2023-01-26T09:44:07;4.20;32.90
1011;DHT22;494;48.744;10.106;2023-01-26T09:46:46;4.40;32.90
1011;DHT22;494;48.744;10.106;2023-01-26T09:49:30;4.30;32.50
1011;DHT22;494;48.744;10.106;2023-01-26T09:52:15;4.10;32.60
1011;DHT22;494;48.744;10.106;2023-01-26T09:54:50;4.00;32.90
1011;DHT22;494;48.744;10.106;2023-01-26T09:57:26;4.20;33.20
1011;DHT22;494;48.744;10.106;2023-01-26T10:00:04;4.10;33.50
1011;DHT22;494;48.744;10.106;2023-01-26T10:02:44;4.10;33.00
1011;DHT22;494;48.744;10.106;2023-01-26T10:05:29;4.20;33.00
1011;DHT22;494;48.744;10.106;2023-01-26T10:08:08;4.20;33.20
1011;DHT22;494;48.744;10.106;2023-01-26T10:10:43;4.00;33.10
1011;DHT22;494;48.744;10.106;2023-01-26T10:13:16;4.00;33.80
1011;DHT22;494;48.744;10.106;2023-01-26T10:15:48;3.90;34.40
1011;DHT22;494;48.744;10.106;2023-01-26T10:18:23;3.90;34.20
1011;DHT22;494;48.744;10.106;2023-01-26T10:21:01;3.90;34.30
1011;DHT22;494;48.744;10.106;2023-01-26T10:23:33;3.90;34.20
1011;DHT22;494;48.744;10.106;2023-01-26T10:26:10;4.00;34.20
1011;DHT22;494;48.744;10.106;2023-01-26T10:28:42;3.70;33.90
1011;DHT22;494;48.744;10.106;2023-01-26T10:31:15;3.70;33.90
1011;DHT22;494;48.744;10.106;2023-01-26T10:33:49;3.70;33.90
1011;DHT22;494;48.744;10.106;2023-01-26T10:36:21;3.70;34.30
1011;DHT22;494;48.744;10.106;2023-01-26T10:38:51;3.70;34.80
1011;DHT22;494;48.744;10.106;2023-01-26T10:41:25;3.80;35.00
1011;DHT22;494;48.744;10.106;2023-01-26T10:43:56;3.70;34.70
1011;DHT22;494;48.744;10.106;2023-01-26T10:46:29;3.70;34.80
1011;DHT22;494;48.744;10.106;2023-01-26T10:49:01;3.70;35.20
1011;DHT22;494;48.744;10.106;2023-01-26T10:51:33;3.80;35.30
1011;DHT22;494;48.744;10.106;2023-01-26T10:54:20;4.00;35.30
1011;DHT22;494;48.744;10.106;2023-01-26T10:56:52;3.80;35.30
1011;DHT22;494;48.744;10.106;2023-01-26T10:59:26;3.80;35.10
1011;DHT22;494;48.744;10.106;2023-01-26T11:02:00;4.00;34.80
1011;DHT22;494;48.744;10.106;2023-01-26T11:04:30;3.70;35.10
1011;DHT22;494;48.744;10.106;2023-01-26T11:07:24;3.80;35.60
1011;DHT22;494;48.744;10.106;2023-01-26T11:09:55;3.70;35.90
1011;DHT22;494;48.744;10.106;2023-01-26T11:12:24;3.70;35.60
1011;DHT22;494;48.744;10.106;2023-01-26T11:15:01;3.70;35.40
1011;DHT22;494;48.744;10.106;2023-01-26T11:17:36;3.70;35.40
1011;DHT22;494;48.744;10.106;2023-01-26T11:20:37;3.70;35.50
1011;DHT22;494;48.744;10.106;2023-01-26T11:23:21;3.50;35.50
1011;DHT22;494;48.744;10.106;2023-01-26T11:26:29;3.40;36.10
1011;DHT22;494;48.744;10.106;2023-01-26T11:29:37;3.60;36.40
1011;DHT22;494;48.744;10.106;2023-01-26T11:32:28;3.60;36.20
1011;DHT22;494;48.744;10.106;2023-01-26T11:35:11;3.60;36.40
1011;DHT22;494;48.744;10.106;2023-01-26T11:37:47;3.50;36.50
1011;DHT22;494;48.744;10.106;2023-01-26T11:40:30;3.50;36.50
1011;DHT22;494;48.744;10.106;2023-01-26T11:43:21;3.40;36.80
1011;DHT22;494;48.744;10.106;2023-01-26T11:46:26;3.60;37.00
1011;DHT22;494;48.744;10.106;2023-01-26T11:49:19;3.60;36.80
1011;DHT22;494;48.744;10.106;2023-01-26T11:52:05;3.70;36.70
1011;DHT22;494;48.744;10.106;2023-01-26T11:55:00;3.60;37.00
1011;DHT22;494;48.744;10.106;2023-01-26T11:57:48;3.50;37.60
1011;DHT22;494;48.744;10.106;2023-01-26T12:00:36;3.40;37.80
1011;DHT22;494;48.744;10.106;2023-01-26T12:03:16;3.40;38.10
1011;DHT22;494;48.744;10.106;2023-01-26T12:05:53;3.60;38.00
1011;DHT22;494;48.744;10.106;2023-01-26T12:08:28;3.40;38.20
1011;DHT22;494;48.744;10.106;2023-01-26T12:11:07;3.40;38.40
1011;DHT22;494;48.744;10.106;2023-01-26T12:14:14;3.40;38.90
1011;DHT22;494;48.744;10.106;2023-01-26T12:17:06;3.20;39.30
1011;DHT22;494;48.744;10.106;2023-01-26T12:19:51;3.10;39.20
1011;DHT22;494;48.744;10.106;2023-01-26T12:22:32;3.30;39.40
1011;DHT22;494;48.744;10.106;2023-01-26T12:25:16;3.30;39.50
1011;DHT22;494;48.744;10.106;2023-01-26T12:27:55;3.20;38.90
1011;DHT22;494;48.744;10.106;2023-01-26T12:30:34;3.20;39.20
1011;DHT22;494;48.744;10.106;2023-01-26T12:33:09;3.30;39.10
1011;DHT22;494;48.744;10.106;2023-01-26T12:39:04;3.30;39.20
1011;DHT22;494;48.744;10.106;2023-01-26T12:41:58;3.30;39.30
1011;DHT22;494;48.744;10.106;2023-01-26T12:44:37;3.60;39.20
1011;DHT22;494;48.744;10.106;2023-01-26T12:47:17;3.30;39.00
1011;DHT22;494;48.744;10.106;2023-01-26T12:49:56;3.30;38.90
1011;DHT22;494;48.744;10.106;2023-01-26T12:52:34;3.40;38.90
1011;DHT22;494;48.744;10.106;2023-01-26T12:55:15;3.40;38.60
1011;DHT22;494;48.744;10.106;2023-01-26T12:57:50;3.60;38.10
1011;DHT22;494;48.744;10.106;2023-01-26T13:00:23;3.60;37.90
1011;DHT22;494;48.744;10.106;2023-01-26T13:03:00;3.40;38.20
1011;DHT22;494;48.744;10.106;2023-01-26T13:05:33;3.50;38.60
1011;DHT22;494;48.744;10.106;2023-01-26T13:08:45;3.50;37.50
1011;DHT22;494;48.744;10.106;2023-01-26T13:11:42;3.60;37.90
1011;DHT22;494;48.744;10.106;2023-01-26T13:17:47;3.60;37.70
1011;DHT22;494;48.744;10.106;2023-01-26T13:23:50;3.70;37.00
1011;DHT22;494;48.744;10.106;2023-01-26T13:26:49;3.70;36.60
1011;DHT22;494;48.744;10.106;2023-01-26T13:29:32;3.70;36.30
1011;DHT22;494;48.744;10.106;2023-01-26T13:35:34;3.60;35.90
1011;DHT22;494;48.744;10.106;2023-01-26T13:38:11;3.60;35.60
1011;DHT22;494;48.744;10.106;2023-01-26T13:40:46;3.70;35.90
1011;DHT22;494;48.744;10.106;2023-01-26T13:43:27;3.60;36.30
1011;DHT22;494;48.744;10.106;2023-01-26T13:46:08;3.80;36.30
1011;DHT22;494;48.744;10.106;2023-01-26T13:48:42;3.60;36.50
1011;DHT22;494;48.744;10.106;2023-01-26T13:51:16;3.60;36.80
1011;DHT22;494;48.744;10.106;2023-01-26T13:53:52;3.70;36.80
1011;DHT22;494;48.744;10.106;2023-01-26T13:56:30;3.60;36.40
1011;DHT22;494;48.744;10.106;2023-01-26T13:59:05;3.70;36.50
1011;DHT22;494;48.744;10.106;2023-01-26T14:01:41;3.60;36.30
1011;DHT22;494;48.744;10.106;2023-01-26T14:04:14;3.60;36.50
1011;DHT22;494;48.744;10.106;2023-01-26T14:06:51;3.60;36.20
1011;DHT22;494;48.744;10.106;2023-01-26T14:09:25;3.50;36.50
1011;DHT22;494;48.744;10.106;2023-01-26T14:11:58;3.60;37.10
1011;DHT22;494;48.744;10.106;2023-01-26T14:14:31;3.40;36.50
1011;DHT22;494;48.744;10.106;2023-01-26T14:17:06;3.40;36.80
1011;DHT22;494;48.744;10.106;2023-01-26T14:19:39;3.50;37.20
1011;DHT22;494;48.744;10.106;2023-01-26T14:22:13;3.30;37.60
1011;DHT22;494;48.744;10.106;2023-01-26T14:24:47;3.20;37.70
1011;DHT22;494;48.744;10.106;2023-01-26T14:27:38;3.40;38.10
1011;DHT22;494;48.744;10.106;2023-01-26T14:30:21;3.40;38.00
1011;DHT22;494;48.744;10.106;2023-01-26T14:32:57;3.40;37.90
1011;DHT22;494;48.744;10.106;2023-01-26T14:35:31;3.40;37.70
1011;DHT22;494;48.744;10.106;2023-01-26T14:38:15;3.40;37.70
1011;DHT22;494;48.744;10.106;2023-01-26T14:40:46;3.40;38.30
1011;DHT22;494;48.744;10.106;2023-01-26T14:43:16;3.60;37.80
1011;DHT22;494;48.744;10.106;2023-01-26T14:45:51;3.40;37.50
1011;DHT22;494;48.744;10.106;2023-01-26T14:48:27;3.40;38.00
1011;DHT22;494;48.744;10.106;2023-01-26T14:51:04;3.30;38.10
1011;DHT22;494;48.744;10.106;2023-01-26T14:53:39;3.30;38.60
1011;DHT22;494;48.744;10.106;2023-01-26T14:56:17;3.30;38.80
1011;DHT22;494;48.744;10.106;2023-01-26T14:58:50;3.00;38.60
1011;DHT22;494;48.744;10.106;2023-01-26T15:01:23;3.20;39.10
1011;DHT22;494;48.744;10.106;2023-01-26T15:03:59;2.90;39.40
1011;DHT22;494;48.744;10.106;2023-01-26T15:06:31;3.00;39.50
1011;DHT22;494;48.744;10.106;2023-01-26T15:09:04;3.10;39.60
1011;DHT22;494;48.744;10.106;2023-01-26T15:11:52;3.20;39.10
1011;DHT22;494;48.744;10.106;2023-01-26T15:14:47;3.30;38.90
1011;DHT22;494;48.744;10.106;2023-01-26T15:17:28;3.40;38.40
1011;DHT22;494;48.744;10.106;2023-01-26T15:20:09;3.30;38.50
1011;DHT22;494;48.744;10.106;2023-01-26T15:22:39;3.10;37.80
1011;DHT22;494;48.744;10.106;2023-01-26T15:25:18;3.00;38.30
1011;DHT22;494;48.744;10.106;2023-01-26T15:27:54;3.00;38.20
1011;DHT22;494;48.744;10.106;2023-01-26T15:30:27;2.90;38.50
1011;DHT22;494;48.744;10.106;2023-01-26T15:32:58;2.90;39.00
1011;DHT22;494;48.744;10.106;2023-01-26T15:35:28;2.80;38.70
1011;DHT22;494;48.744;10.106;2023-01-26T15:38:00;2.80;39.00
1011;DHT22;494;48.744;10.106;2023-01-26T15:40:31;2.90;39.10
1011;DHT22;494;48.744;10.106;2023-01-26T15:43:12;2.90;38.80
1011;DHT22;494;48.744;10.106;2023-01-26T15:45:47;2.90;38.90
1011;DHT22;494;48.744;10.106;2023-01-26T15:48:19;2.90;38.90
1011;DHT22;494;48.744;10.106;2023-01-26T15:50:48;3.00;38.00
1011;DHT22;494;48.744;10.106;2023-01-26T15:53:19;3.00;38.30
1011;DHT22;494;48.744;10.106;2023-01-26T15:55:50;3.10;38.00
1011;DHT22;494;48.744;10.106;2023-01-26T15:58:22;3.10;37.90
1011;DHT22;494;48.744;10.106;2023-01-26T16:00:51;3.20;37.80
1011;DHT22;494;48.744;10.106;2023-01-26T16:03:21;3.20;37.50
1011;DHT22;494;48.744;10.106;2023-01-26T16:05:49;3.10;37.50
1011;DHT22;494;48.744;10.106;2023-01-26T16:08:19;3.10;37.60
1011;DHT22;494;48.744;10.106;2023-01-26T16:10:47;3.20;37.60
1011;DHT22;494;48.744;10.106;2023-01-26T16:13:18;3.30;37.20
1011;DHT22;494;48.744;10.106;2023-01-26T16:15:48;3.20;37.20
1011;DHT22;494;48.744;10.106;2023-01-26T16:18:19;3.20;37.10
1011;DHT22;494;48.744;10.106;2023-01-26T16:20:48;3.30;37.30
1011;DHT22;494;48.744;10.106;2023-01-26T16:23:20;3.20;37.30
1011;DHT22;494;48.744;10.106;2023-01-26T16:25:51;3.00;37.80
1011;DHT22;494;48.744;10.106;2023-01-26T16:28:21;2.90;38.70
1011;DHT22;494;48.744;10.106;2023-01-26T16:30:50;2.90;39.60
1011;DHT22;494;48.744;10.106;2023-01-26T16:33:19;3.10;39.00
1011;DHT22;494;48.744;10.106;2023-01-26T16:35:48;3.00;38.90
1011;DHT22;494;48.744;10.106;2023-01-26T16:38:17;3.10;39.20
1011;DHT22;494;48.744;10.106;2023-01-26T16:40:47;2.90;38.80
1011;DHT22;494;48.744;10.106;2023-01-26T16:43:21;2.80;39.00
1011;DHT22;494;48.744;10.106;2023-01-26T16:45:54;2.90;39.40
1011;DHT22;494;48.744;10.106;2023-01-26T16:48:24;2.90;39.20
1011;DHT22;494;48.744;10.106;2023-01-26T16:50:54;2.90;39.30
1011;DHT22;494;48.744;10.106;2023-01-26T16:53:26;3.00;39.30
1011;DHT22;494;48.744;10.106;2023-01-26T16:55:57;3.10;39.10
1011;DHT22;494;48.744;10.106;2023-01-26T16:58:28;3.20;38.50
1011;DHT22;494;48.744;10.106;2023-01-26T17:00:59;3.10;38.80
1011;DHT22;494;48.744;10.106;2023-01-26T17:03:28;3.00;38.80
1011;DHT22;494;48.744;10.106;2023-01-26T17:05:57;2.90;39.40
1011;DHT22;494;48.744;10.106;2023-01-26T17:08:26;2.90;39.40
1011;DHT22;494;48.744;10.106;2023-01-26T17:10:55;3.00;39.30
1011;DHT22;494;48.744;10.106;2023-01-26T17:13:30;3.00;39.20
1011;DHT22;494;48.744;10.106;2023-01-26T17:16:00;2.90;39.10